createdAt,value
2023-01-11T00:01:07.542Z,100680.25
2023-01-11T00:04:08.922Z,100668.88
2023-01-11T00:07:10.366Z,100674.34
2023-01-11T00:10:11.755Z,100664.03
2023-01-11T00:13:14.063Z,100659.84
2023-01-11T00:16:15.554Z,100665.16
2023-01-11T00:19:17.211Z,100659.09
2023-01-11T00:22:20.056Z,100674.88
2023-01-11T00:25:21.494Z,100663.22
2023-01-11T00:28:22.919Z,100663.94
2023-01-11T00:31:24.419Z,100650.06
2023-01-11T00:34:25.993Z,100635.28
2023-01-11T00:37:27.394Z,100642.91
2023-01-11T00:40:28.843Z,100632.56
2023-01-11T00:43:48.664Z,100622.84
2023-01-11T00:47:09.432Z,100608.81
2023-01-11T00:50:10.939Z,100615.75
2023-01-11T00:53:12.372Z,100600.84
2023-01-11T00:56:13.772Z,100602.72
2023-01-11T00:59:15.197Z,100589.53
2023-01-11T01:02:16.669Z,100592.13
2023-01-11T01:05:18.903Z,100583.47
2023-01-11T01:08:20.314Z,100581.66
2023-01-11T01:11:21.867Z,100578.94
2023-01-11T01:14:26.292Z,100565.00
2023-01-11T01:17:27.934Z,100573.78
2023-01-11T01:20:30.362Z,100565.09
2023-01-11T01:23:31.765Z,100563.38
2023-01-11T01:26:33.154Z,100575.47
2023-01-11T01:29:34.528Z,100566.75
2023-01-11T01:32:35.911Z,100570.13
2023-01-11T01:35:38.259Z,100570.00
2023-01-11T01:38:39.652Z,100567.53
2023-01-11T01:41:41.328Z,100567.53
2023-01-11T01:44:58.957Z,100563.91
2023-01-11T01:48:02.156Z,100570.81
2023-01-11T01:51:05.772Z,100563.84
2023-01-11T01:54:11.052Z,100573.56
2023-01-11T01:57:18.632Z,100569.34
2023-01-11T02:00:20.627Z,100577.38
2023-01-11T02:03:25.657Z,100574.63
2023-01-11T02:06:27.174Z,100572.09
2023-01-11T02:09:36.171Z,100568.53
2023-01-11T02:12:41.991Z,100566.75
2023-01-11T02:15:43.438Z,100567.50
2023-01-11T02:18:45.182Z,100571.84
2023-01-11T02:22:14.612Z,100568.38
2023-01-11T02:25:58.090Z,100570.16
2023-01-11T02:29:42.035Z,100564.91
2023-01-11T02:33:00.128Z,100556.13
2023-01-11T02:36:08.639Z,100552.44
2023-01-11T02:39:22.439Z,100550.47
2023-01-11T02:43:34.394Z,100537.06
2023-01-11T02:46:46.293Z,100542.06
2023-01-11T02:49:58.898Z,100525.22
2023-01-11T02:53:05.983Z,100515.50
2023-01-11T02:56:11.947Z,100527.56
2023-01-11T02:59:21.427Z,100516.13
2023-01-11T03:02:22.811Z,100519.31
2023-01-11T03:05:24.192Z,100504.34
2023-01-11T03:08:53.881Z,100506.97
2023-01-11T03:12:54.893Z,100509.50
2023-01-11T03:16:14.153Z,100497.28
2023-01-11T03:19:15.499Z,100484.75
2023-01-11T03:22:23.296Z,100495.38
2023-01-11T03:25:46.471Z,100493.28
2023-01-11T03:29:07.939Z,100488.72
2023-01-11T03:32:28.266Z,100494.53
2023-01-11T03:36:11.313Z,100496.78
2023-01-11T03:39:32.954Z,100488.06
2023-01-11T03:42:58.188Z,100485.63
2023-01-11T03:46:13.288Z,100480.47
2023-01-11T03:49:27.303Z,100474.25
2023-01-11T03:52:33.890Z,100470.63
2023-01-11T03:55:39.785Z,100478.47
2023-01-11T03:58:41.206Z,100471.56
2023-01-11T04:01:43.905Z,100469.97
2023-01-11T04:04:45.935Z,100463.88
2023-01-11T04:07:47.330Z,100459.38
2023-01-11T04:10:49.247Z,100454.13
2023-01-11T04:13:50.640Z,100454.13
2023-01-11T04:16:52.028Z,100454.22
2023-01-11T04:19:53.400Z,100453.47
2023-01-11T04:22:54.800Z,100449.91
2023-01-11T04:25:56.207Z,100437.69
2023-01-11T04:28:57.664Z,100432.44
2023-01-11T04:31:59.073Z,100431.56
2023-01-11T04:35:00.460Z,100425.44
2023-01-11T04:38:01.847Z,100414.66
2023-01-11T04:41:23.727Z,100415.47
2023-01-11T04:44:25.519Z,100416.41
2023-01-11T04:47:26.905Z,100417.16
2023-01-11T04:50:28.498Z,100421.53
2023-01-11T04:53:29.944Z,100417.84
2023-01-11T04:56:31.647Z,100418.69
2023-01-11T04:59:33.219Z,100424.00
2023-01-11T05:02:34.693Z,100416.13
2023-01-11T05:05:36.204Z,100408.25
2023-01-11T05:08:38.035Z,100402.25
2023-01-11T05:11:39.448Z,100403.13
2023-01-11T05:14:40.890Z,100398.72
2023-01-11T05:17:42.299Z,100394.94
2023-01-11T05:20:43.739Z,100385.34
2023-01-11T05:23:45.663Z,100382.34
2023-01-11T05:26:50.022Z,100370.22
2023-01-11T05:29:51.433Z,100379.78
2023-01-11T05:32:52.819Z,100371.03
2023-01-11T05:36:02.297Z,100363.88
2023-01-11T05:39:04.973Z,100360.31
2023-01-11T05:42:06.425Z,100363.00
2023-01-11T05:45:27.164Z,100360.34
2023-01-11T05:48:28.593Z,100352.31
2023-01-11T05:51:32.473Z,100343.53
2023-01-11T05:54:33.890Z,100347.75
2023-01-11T05:57:35.279Z,100337.22
2023-01-11T06:00:36.734Z,100338.16
2023-01-11T06:03:38.119Z,100337.97
2023-01-11T06:06:39.591Z,100339.69
2023-01-11T06:09:41.020Z,100338.84
2023-01-11T06:12:42.410Z,100346.69
2023-01-11T06:15:44.063Z,100348.13
2023-01-11T06:18:47.990Z,100335.63
2023-01-11T06:21:49.401Z,100331.78
2023-01-11T06:24:50.768Z,100333.50
2023-01-11T06:27:53.359Z,100332.28
2023-01-11T06:30:56.370Z,100333.59
2023-01-11T06:33:57.820Z,100317.56
2023-01-11T06:36:59.244Z,100320.09
2023-01-11T06:40:00.622Z,100314.88
2023-01-11T06:43:02.369Z,100312.91
2023-01-11T06:46:04.680Z,100303.38
2023-01-11T06:49:06.172Z,100293.59
2023-01-11T06:52:07.611Z,100299.03
2023-01-11T06:55:09.711Z,100295.25
2023-01-11T06:58:11.278Z,100291.53
2023-01-11T07:01:13.114Z,100295.25
2023-01-11T07:04:14.571Z,100292.53
2023-01-11T07:07:16.024Z,100289.66
2023-01-11T07:10:17.526Z,100289.34
2023-01-11T07:13:19.239Z,100285.78
2023-01-11T07:16:20.756Z,100287.97
2023-01-11T07:19:22.196Z,100289.91
2023-01-11T07:22:23.799Z,100288.09
2023-01-11T07:25:28.591Z,100281.78
2023-01-11T07:28:30.672Z,100279.72
2023-01-11T07:31:32.065Z,100283.31
2023-01-11T07:34:34.377Z,100282.28
2023-01-11T07:37:37.313Z,100281.94
2023-01-11T07:40:39.798Z,100266.81
2023-01-11T07:43:41.220Z,100267.47
2023-01-11T07:46:42.872Z,100262.50
2023-01-11T07:49:44.363Z,100274.50
2023-01-11T07:52:49.494Z,100276.56
2023-01-11T07:55:50.909Z,100278.09
2023-01-11T07:58:52.412Z,100277.34
2023-01-11T08:01:53.814Z,100281.03
2023-01-11T08:04:55.311Z,100290.66
2023-01-11T08:07:56.696Z,100291.63
2023-01-11T08:11:16.559Z,100299.38
2023-01-11T08:14:36.367Z,100295.34
2023-01-11T08:17:38.449Z,100301.66
2023-01-11T08:20:40.573Z,100302.63
2023-01-11T08:23:42.047Z,100297.31
2023-01-11T08:26:43.547Z,100303.41
2023-01-11T08:34:39.222Z,100291.88
2023-01-11T08:37:40.593Z,100291.44
2023-01-11T08:40:42.103Z,100282.88
2023-01-11T08:43:43.695Z,100289.16
2023-01-11T08:46:45.191Z,100284.84
2023-01-11T08:49:46.586Z,100283.66
2023-01-11T08:52:49.431Z,100282.34
2023-01-11T08:55:51.766Z,100289.50
2023-01-11T08:58:53.187Z,100278.94
2023-01-11T09:01:54.720Z,100284.88
2023-01-11T09:04:56.281Z,100280.50
2023-01-11T09:07:57.922Z,100273.41
2023-01-11T09:11:00.074Z,100278.91
2023-01-11T09:14:01.707Z,100287.16
2023-01-11T09:17:03.527Z,100291.28
2023-01-11T09:20:05.471Z,100284.31
2023-01-11T09:23:06.983Z,100290.13
2023-01-11T09:26:08.467Z,100298.28
2023-01-11T09:29:10.693Z,100293.81
2023-01-11T09:32:12.143Z,100301.59
2023-01-11T09:35:16.590Z,100315.94
2023-01-11T09:38:18.333Z,100318.50
2023-01-11T09:41:36.068Z,100318.59
2023-01-11T09:44:51.887Z,100313.34
2023-01-11T09:48:19.995Z,100303.28
2023-01-11T09:51:23.431Z,100312.50
2023-01-11T09:54:27.072Z,100325.00
2023-01-11T09:58:02.957Z,100322.34
2023-01-11T10:01:24.834Z,100317.16
2023-01-11T10:04:33.138Z,100327.78
2023-01-11T10:07:53.685Z,100324.22
2023-01-11T10:18:30.558Z,100312.94
2023-01-11T10:19:12.324Z,100314.66
2023-01-11T10:22:22.261Z,100306.75
2023-01-11T10:25:26.579Z,100314.53
2023-01-11T10:28:35.790Z,100307.66
2023-01-11T10:32:08.595Z,100312.84
2023-01-11T10:35:46.436Z,100315.53
2023-01-11T10:39:32.225Z,100318.94
2023-01-11T10:42:44.085Z,100314.66
2023-01-11T10:45:55.421Z,100321.69
2023-01-11T10:49:10.250Z,100318.09
2023-01-11T10:52:22.184Z,100315.53
2023-01-11T10:55:39.829Z,100323.69
2023-01-11T10:59:15.659Z,100309.38
2023-01-11T11:02:26.308Z,100316.59
2023-01-11T11:05:37.951Z,100317.38
2023-01-11T11:08:50.554Z,100322.09
2023-01-11T11:12:01.316Z,100318.63
2023-01-11T11:15:09.517Z,100313.19
2023-01-11T11:18:11.164Z,100307.88
2023-01-11T11:21:35.729Z,100319.31
2023-01-11T11:24:42.746Z,100318.31
2023-01-11T11:27:50.053Z,100317.84
2023-01-11T11:31:00.538Z,100322.94
2023-01-11T11:34:07.351Z,100318.63
2023-01-11T11:37:20.400Z,100315.19
2023-01-11T11:40:36.114Z,100311.28
2023-01-11T11:43:43.297Z,100308.78
2023-01-11T11:47:02.641Z,100332.63
2023-01-11T11:50:42.049Z,100325.94
2023-01-11T11:53:53.464Z,100327.63
2023-01-11T11:56:57.303Z,100321.34
2023-01-11T12:00:22.359Z,100312.84
2023-01-11T12:03:29.040Z,100321.53
2023-01-11T12:06:30.914Z,100315.63
2023-01-11T12:09:34.749Z,100314.75
2023-01-11T12:12:53.795Z,100315.56
2023-01-11T12:16:04.430Z,100313.63
2023-01-11T12:19:34.191Z,100313.06
2023-01-11T12:22:35.701Z,100315.00
2023-01-11T12:25:47.128Z,100302.72
2023-01-11T12:29:03.694Z,100290.66
2023-01-11T12:32:38.723Z,100292.19
2023-01-11T12:36:11.181Z,100281.72
2023-01-11T12:39:26.564Z,100273.13
2023-01-11T12:42:59.056Z,100275.94
2023-01-11T12:46:19.447Z,100277.34
2023-01-11T12:49:43.825Z,100283.56
2023-01-11T12:52:53.509Z,100294.00
2023-01-11T12:56:11.126Z,100288.69
2023-01-11T12:59:18.629Z,100296.88
2023-01-11T13:02:45.481Z,100304.88
2023-01-11T13:06:17.043Z,100319.63
2023-01-11T13:09:40.461Z,100322.47
2023-01-11T13:12:49.075Z,100322.16
2023-01-11T13:16:17.661Z,100329.16
2023-01-11T13:19:43.021Z,100329.16
2023-01-11T13:22:50.664Z,100336.00
2023-01-11T13:25:53.587Z,100341.97
2023-01-11T13:29:02.168Z,100338.25
2023-01-11T13:32:07.934Z,100331.16
2023-01-11T13:35:20.013Z,100334.28
2023-01-11T13:38:34.695Z,100333.47
2023-01-11T13:41:53.074Z,100338.81
2023-01-11T13:45:04.376Z,100343.28
2023-01-11T13:48:21.021Z,100342.53
2023-01-11T13:51:38.729Z,100343.28
2023-01-11T13:54:55.245Z,100352.09
2023-01-11T13:58:03.334Z,100359.97
2023-01-11T14:01:10.486Z,100365.22
2023-01-11T14:04:22.305Z,100367.75
2023-01-11T14:07:35.787Z,100377.28
2023-01-11T14:11:08.812Z,100389.25
2023-01-11T14:14:28.828Z,100372.06
2023-01-11T14:17:49.522Z,100380.94
2023-01-11T14:21:00.122Z,100392.34
2023-01-11T14:24:03.387Z,100389.44
2023-01-11T14:27:28.637Z,100393.34
2023-01-11T14:30:47.226Z,100388.06
2023-01-11T14:33:48.751Z,100409.91
2023-01-11T14:36:56.429Z,100400.25
2023-01-11T14:40:26.629Z,100412.75
2023-01-11T14:43:46.421Z,100419.78
2023-01-11T14:47:11.823Z,100430.25
2023-01-11T14:50:40.945Z,100434.50
2023-01-11T14:53:49.515Z,100432.88
2023-01-11T14:57:00.340Z,100439.19
2023-01-11T15:00:01.942Z,100453.56
2023-01-11T15:03:03.269Z,100453.56
2023-01-11T15:06:13.572Z,100454.72
2023-01-11T15:09:47.941Z,100464.31
2023-01-11T15:12:49.475Z,100468.69
2023-01-11T15:16:10.991Z,100475.16
2023-01-11T15:19:33.765Z,100480.44
2023-01-11T15:22:36.063Z,100483.22
2023-01-11T15:25:37.475Z,100483.97
2023-01-11T15:28:48.875Z,100485.78
2023-01-11T15:31:53.493Z,100490.31
2023-01-11T15:35:26.787Z,100484.19
2023-01-11T15:38:34.395Z,100489.56
2023-01-11T15:42:04.409Z,100496.84
2023-01-11T15:45:30.462Z,100499.63
2023-01-11T15:48:43.647Z,100503.19
2023-01-11T15:52:22.482Z,100518.88
2023-01-11T15:55:48.096Z,100530.47
2023-01-11T15:59:17.405Z,100540.09
2023-01-11T16:02:35.467Z,100536.41
2023-01-11T16:05:42.579Z,100556.44
2023-01-11T16:08:55.328Z,100561.63
2023-01-11T16:12:22.695Z,100574.16
2023-01-11T16:15:30.028Z,100577.63
2023-01-11T16:18:54.855Z,100595.19
2023-01-11T16:21:59.064Z,100592.06
2023-01-11T16:25:01.575Z,100607.78
2023-01-11T16:28:04.247Z,100618.16
2023-01-11T16:31:05.875Z,100621.88
2023-01-11T16:34:07.430Z,100629.94
2023-01-11T16:37:18.304Z,100639.59
2023-01-11T16:40:24.519Z,100634.47
2023-01-11T16:43:29.239Z,100642.38
2023-01-11T16:46:45.862Z,100647.66
2023-01-11T16:49:52.021Z,100648.63
2023-01-11T16:52:54.805Z,100653.91
2023-01-11T16:56:07.481Z,100657.59
2023-01-11T16:59:14.902Z,100668.91
2023-01-11T17:02:39.994Z,100662.50
2023-01-11T17:05:41.665Z,100668.75
2023-01-11T17:08:50.205Z,100671.66
2023-01-11T17:11:52.696Z,100676.81
2023-01-11T17:15:26.892Z,100686.03
2023-01-11T17:18:28.372Z,100694.03
2023-01-11T17:21:30.185Z,100696.69
2023-01-11T17:24:37.104Z,100704.59
2023-01-11T17:27:41.582Z,100701.84
2023-01-11T17:30:46.451Z,100702.06
2023-01-11T17:33:50.336Z,100693.50
2023-01-11T17:36:52.057Z,100705.19
2023-01-11T17:39:53.793Z,100710.53
2023-01-11T17:43:28.556Z,100711.66
2023-01-11T17:46:29.966Z,100719.75
2023-01-11T17:49:33.370Z,100738.94
2023-01-11T17:52:43.898Z,100740.69
2023-01-11T17:55:51.909Z,100744.22
2023-01-11T17:59:15.458Z,100756.59
2023-01-11T18:02:17.177Z,100751.22
2023-01-11T18:05:23.737Z,100743.44
2023-01-11T18:08:25.113Z,100750.56
2023-01-11T18:11:33.326Z,100757.50
2023-01-11T18:14:41.060Z,100766.50
2023-01-11T18:17:42.625Z,100771.16
2023-01-11T18:20:47.168Z,100772.13
2023-01-11T18:23:48.628Z,100780.41
2023-01-11T18:27:14.501Z,100783.28
2023-01-11T18:30:31.194Z,100790.41
2023-01-11T18:33:34.007Z,100805.34
2023-01-11T18:36:35.493Z,100804.53
2023-01-11T18:39:37.013Z,100805.44
2023-01-11T18:42:38.537Z,100811.66
2023-01-11T18:45:41.221Z,100816.72
2023-01-11T18:48:42.987Z,100819.44
2023-01-11T18:51:45.195Z,100830.72
2023-01-11T18:54:46.851Z,100836.16
2023-01-11T18:57:48.348Z,100830.16
2023-01-11T19:00:49.764Z,100839.81
2023-01-11T19:03:51.254Z,100842.63
2023-01-11T19:06:52.747Z,100843.53
2023-01-11T19:09:59.170Z,100854.03
2023-01-11T19:13:01.477Z,100847.91
2023-01-11T19:16:03.045Z,100852.47
2023-01-11T19:19:04.476Z,100858.63
2023-01-11T19:22:06.154Z,100851.63
2023-01-11T19:25:09.475Z,100857.72
2023-01-11T19:28:10.925Z,100859.47
2023-01-11T19:31:12.676Z,100860.41
2023-01-11T19:34:14.324Z,100857.78
2023-01-11T19:37:15.825Z,100856.97
2023-01-11T19:40:19.596Z,100865.69
2023-01-11T19:43:20.985Z,100858.72
2023-01-11T19:46:31.048Z,100872.69
2023-01-11T19:49:33.702Z,100873.66
2023-01-11T19:52:35.215Z,100868.34
2023-01-11T19:55:37.884Z,100872.88
2023-01-11T19:58:39.284Z,100868.47
2023-01-11T20:01:41.349Z,100858.94
2023-01-11T20:04:43.126Z,100859.72
2023-01-11T20:07:44.506Z,100864.09
2023-01-11T20:10:47.393Z,100847.50
2023-01-11T20:13:52.494Z,100837.06
2023-01-11T20:16:53.914Z,100838.81
2023-01-11T20:19:55.395Z,100849.22
2023-01-11T20:22:56.786Z,100848.31
2023-01-11T20:25:59.873Z,100865.94
2023-01-11T20:29:02.095Z,100867.72
2023-01-11T20:32:27.723Z,100866.84
2023-01-11T20:35:24.962Z,100860.59
2023-01-11T20:38:26.406Z,100863.34
2023-01-11T20:41:46.804Z,100860.63
2023-01-11T20:44:48.263Z,100865.97
2023-01-11T20:47:49.684Z,100874.72
2023-01-11T20:50:51.063Z,100873.75
2023-01-11T20:53:52.663Z,100873.78
2023-01-11T20:56:54.285Z,100875.59
2023-01-11T20:59:56.271Z,100861.56
2023-01-11T21:02:57.736Z,100873.06
2023-01-11T21:06:02.680Z,100861.69
2023-01-11T21:09:05.081Z,100856.44
2023-01-11T21:12:09.365Z,100853.03
2023-01-11T21:15:11.378Z,100856.50
2023-01-11T21:18:12.859Z,100842.41
2023-01-11T21:21:17.520Z,100844.19
2023-01-11T21:24:19.070Z,100833.03
2023-01-11T21:27:20.510Z,100838.31
2023-01-11T21:30:23.216Z,100839.28
2023-01-11T21:33:24.637Z,100831.41
2023-01-11T21:36:27.968Z,100822.66
2023-01-11T21:39:29.335Z,100830.53
2023-01-11T21:42:30.713Z,100833.16
2023-01-11T21:45:32.082Z,100838.44
2023-01-11T21:48:33.700Z,100839.31
2023-01-11T21:51:35.217Z,100842.75
2023-01-11T21:54:36.642Z,100844.66
2023-01-11T21:57:38.135Z,100840.25
2023-01-11T22:00:39.716Z,100834.94
2023-01-11T22:03:42.953Z,100841.91
2023-01-11T22:06:53.810Z,100846.31
2023-01-11T22:10:04.679Z,100852.44
2023-01-11T22:13:06.694Z,100844.63
2023-01-11T22:16:12.229Z,100844.56
2023-01-11T22:19:13.948Z,100855.94
2023-01-11T22:22:15.331Z,100863.00
2023-01-11T22:25:17.229Z,100869.91
2023-01-11T22:28:18.599Z,100858.53
2023-01-11T22:31:20.803Z,100873.22
2023-01-11T22:34:23.234Z,100862.88
2023-01-11T22:37:24.664Z,100864.59
2023-01-11T22:40:26.067Z,100858.53
2023-01-11T22:43:28.888Z,100862.00
2023-01-11T22:46:30.548Z,100849.75
2023-01-11T22:49:31.947Z,100865.44
2023-01-11T22:52:33.376Z,100858.38
2023-01-11T22:55:34.773Z,100855.75
2023-01-11T22:58:36.626Z,100864.50
2023-01-11T23:01:40.338Z,100860.16
2023-01-11T23:04:41.718Z,100849.63
2023-01-11T23:07:43.415Z,100846.97
2023-01-11T23:10:44.826Z,100848.66
2023-01-11T23:13:52.384Z,100847.69
2023-01-11T23:16:53.921Z,100847.69
2023-01-11T23:19:55.358Z,100847.56
2023-01-11T23:22:56.747Z,100850.97
2023-01-11T23:25:58.381Z,100842.25
2023-01-11T23:28:59.802Z,100846.63
2023-01-11T23:32:01.289Z,100852.63
2023-01-11T23:35:02.820Z,100845.72
2023-01-11T23:38:04.443Z,100849.22
2023-01-11T23:41:30.135Z,100854.41
2023-01-11T23:44:31.721Z,100860.50
2023-01-11T23:47:33.131Z,100841.25
2023-01-11T23:50:34.567Z,100842.13
2023-01-11T23:53:36.002Z,100838.63
2023-01-11T23:56:38.144Z,100819.31
2023-01-11T23:59:40.866Z,100817.63
